sensor_id;sensor_type;location;lat;lon;timestamp;temperature;humidity
7562;DHT22;3822;48.784;9.174;2022-10-22T00:02:04;18.00;98.50
7562;DHT22;3822;48.784;9.174;2022-10-22T00:04:33;17.00;98.10
7562;DHT22;3822;48.784;9.174;2022-10-22T00:07:00;17.00;98.10
7562;DHT22;3822;48.784;9.174;2022-10-22T00:09:26;17.00;98.00
7562;DHT22;3822;48.784;9.174;2022-10-22T00:11:53;17.00;97.90
7562;DHT22;3822;48.784;9.174;2022-10-22T00:14:19;17.00;97.90
7562;DHT22;3822;48.784;9.174;2022-10-22T00:16:46;17.00;97.80
7562;DHT22;3822;48.784;9.174;2022-10-22T00:19:12;16.90;97.80
7562;DHT22;3822;48.784;9.174;2022-10-22T00:21:40;16.90;97.70
7562;DHT22;3822;48.784;9.174;2022-10-22T00:24:06;16.90;97.70
7562;DHT22;3822;48.784;9.174;2022-10-22T00:26:33;16.90;97.80
7562;DHT22;3822;48.784;9.174;2022-10-22T00:28:59;16.90;97.80
7562;DHT22;3822;48.784;9.174;2022-10-22T00:31:26;16.80;97.80
7562;DHT22;3822;48.784;9.174;2022-10-22T00:33:52;16.80;97.80
7562;DHT22;3822;48.784;9.174;2022-10-22T00:36:19;16.80;97.80
7562;DHT22;3822;48.784;9.174;2022-10-22T00:38:45;16.70;97.80
7562;DHT22;3822;48.784;9.174;2022-10-22T00:41:12;16.70;97.80
7562;DHT22;3822;48.784;9.174;2022-10-22T00:43:59;16.60;97.80
7562;DHT22;3822;48.784;9.174;2022-10-22T00:46:27;16.60;97.90
7562;DHT22;3822;48.784;9.174;2022-10-22T00:48:56;16.50;97.90
7562;DHT22;3822;48.784;9.174;2022-10-22T00:51:28;16.50;98.00
7562;DHT22;3822;48.784;9.174;2022-10-22T00:54:00;16.50;98.00
7562;DHT22;3822;48.784;9.174;2022-10-22T00:56:29;16.60;98.10
7562;DHT22;3822;48.784;9.174;2022-10-22T00:58:58;16.50;98.10
7562;DHT22;3822;48.784;9.174;2022-10-22T01:01:30;16.50;98.20
7562;DHT22;3822;48.784;9.174;2022-10-22T01:03:57;17.40;98.50
7562;DHT22;3822;48.784;9.174;2022-10-22T01:06:29;16.40;98.10
7562;DHT22;3822;48.784;9.174;2022-10-22T01:09:29;16.50;98.20
7562;DHT22;3822;48.784;9.174;2022-10-22T01:12:33;16.50;98.20
7562;DHT22;3822;48.784;9.174;2022-10-22T01:16:15;16.50;98.30
7562;DHT22;3822;48.784;9.174;2022-10-22T01:21:55;16.40;98.30
7562;DHT22;3822;48.784;9.174;2022-10-22T01:27:38;16.40;98.60
7562;DHT22;3822;48.784;9.174;2022-10-22T01:30:30;16.40;98.60
7562;DHT22;3822;48.784;9.174;2022-10-22T01:33:02;16.50;98.70
7562;DHT22;3822;48.784;9.174;2022-10-22T01:35:34;16.30;98.70
7562;DHT22;3822;48.784;9.174;2022-10-22T01:38:08;16.30;98.70
7562;DHT22;3822;48.784;9.174;2022-10-22T01:40:38;16.30;98.70
7562;DHT22;3822;48.784;9.174;2022-10-22T01:43:08;16.30;98.70
7562;DHT22;3822;48.784;9.174;2022-10-22T01:45:51;16.30;98.70
7562;DHT22;3822;48.784;9.174;2022-10-22T01:54:44;16.20;98.60
7562;DHT22;3822;48.784;9.174;2022-10-22T02:01:05;16.20;98.60
7562;DHT22;3822;48.784;9.174;2022-10-22T02:04:08;16.20;98.70
7562;DHT22;3822;48.784;9.174;2022-10-22T02:06:41;16.20;98.80
7562;DHT22;3822;48.784;9.174;2022-10-22T02:09:10;16.10;98.80
7562;DHT22;3822;48.784;9.174;2022-10-22T02:11:40;16.20;98.80
7562;DHT22;3822;48.784;9.174;2022-10-22T02:14:08;16.10;98.70
7562;DHT22;3822;48.784;9.174;2022-10-22T02:16:40;16.20;98.80
7562;DHT22;3822;48.784;9.174;2022-10-22T02:21:53;16.10;98.80
7562;DHT22;3822;48.784;9.174;2022-10-22T02:24:20;16.10;98.80
7562;DHT22;3822;48.784;9.174;2022-10-22T02:27:08;15.00;98.30
7562;DHT22;3822;48.784;9.174;2022-10-22T02:29:40;16.20;98.80
7562;DHT22;3822;48.784;9.174;2022-10-22T02:32:17;16.20;98.90
7562;DHT22;3822;48.784;9.174;2022-10-22T02:34:46;16.20;98.90
7562;DHT22;3822;48.784;9.174;2022-10-22T02:37:14;16.30;98.90
7562;DHT22;3822;48.784;9.174;2022-10-22T02:39:42;16.30;98.90
7562;DHT22;3822;48.784;9.174;2022-10-22T02:42:09;16.30;98.90
7562;DHT22;3822;48.784;9.174;2022-10-22T02:44:37;16.30;98.90
7562;DHT22;3822;48.784;9.174;2022-10-22T02:47:04;16.30;98.90
7562;DHT22;3822;48.784;9.174;2022-10-22T02:49:30;16.30;98.90
7562;DHT22;3822;48.784;9.174;2022-10-22T02:51:57;16.30;98.90
7562;DHT22;3822;48.784;9.174;2022-10-22T02:54:24;16.40;98.90
7562;DHT22;3822;48.784;9.174;2022-10-22T02:56:51;16.40;98.90
7562;DHT22;3822;48.784;9.174;2022-10-22T02:59:17;16.40;98.90
7562;DHT22;3822;48.784;9.174;2022-10-22T03:01:44;16.40;98.80
7562;DHT22;3822;48.784;9.174;2022-10-22T03:04:10;16.70;99.00
7562;DHT22;3822;48.784;9.174;2022-10-22T03:06:37;16.40;98.80
7562;DHT22;3822;48.784;9.174;2022-10-22T03:09:03;16.40;98.80
7562;DHT22;3822;48.784;9.174;2022-10-22T03:11:30;16.40;98.80
7562;DHT22;3822;48.784;9.174;2022-10-22T03:13:56;17.20;99.10
7562;DHT22;3822;48.784;9.174;2022-10-22T03:16:23;16.40;98.80
7562;DHT22;3822;48.784;9.174;2022-10-22T03:18:49;16.40;98.80
7562;DHT22;3822;48.784;9.174;2022-10-22T03:23:56;16.50;98.80
7562;DHT22;3822;48.784;9.174;2022-10-22T03:26:24;16.50;98.80
7562;DHT22;3822;48.784;9.174;2022-10-22T03:28:50;16.50;98.80
7562;DHT22;3822;48.784;9.174;2022-10-22T03:31:17;16.40;98.60
7562;DHT22;3822;48.784;9.174;2022-10-22T03:33:43;16.40;98.60
7562;DHT22;3822;48.784;9.174;2022-10-22T03:36:10;16.40;98.50
7562;DHT22;3822;48.784;9.174;2022-10-22T03:38:38;16.40;98.50
7562;DHT22;3822;48.784;9.174;2022-10-22T03:41:05;16.50;98.50
7562;DHT22;3822;48.784;9.174;2022-10-22T03:43:34;16.50;98.50
7562;DHT22;3822;48.784;9.174;2022-10-22T03:46:01;17.40;98.80
7562;DHT22;3822;48.784;9.174;2022-10-22T03:48:27;16.40;98.30
7562;DHT22;3822;48.784;9.174;2022-10-22T03:50:54;16.40;98.30
7562;DHT22;3822;48.784;9.174;2022-10-22T03:53:21;16.40;98.20
7562;DHT22;3822;48.784;9.174;2022-10-22T03:55:47;16.40;98.20
7562;DHT22;3822;48.784;9.174;2022-10-22T03:58:14;16.40;98.20
7562;DHT22;3822;48.784;9.174;2022-10-22T04:00:40;16.40;98.20
7562;DHT22;3822;48.784;9.174;2022-10-22T04:03:07;16.30;98.30
7562;DHT22;3822;48.784;9.174;2022-10-22T04:05:33;16.30;98.30
7562;DHT22;3822;48.784;9.174;2022-10-22T04:08:00;16.30;98.30
7562;DHT22;3822;48.784;9.174;2022-10-22T04:10:26;16.40;98.40
7562;DHT22;3822;48.784;9.174;2022-10-22T04:12:53;16.30;98.30
7562;DHT22;3822;48.784;9.174;2022-10-22T04:15:19;16.30;98.40
7562;DHT22;3822;48.784;9.174;2022-10-22T04:17:46;16.30;98.40
7562;DHT22;3822;48.784;9.174;2022-10-22T04:20:12;16.30;98.40
7562;DHT22;3822;48.784;9.174;2022-10-22T04:22:39;16.30;98.40
7562;DHT22;3822;48.784;9.174;2022-10-22T04:25:05;15.50;98.00
7562;DHT22;3822;48.784;9.174;2022-10-22T04:27:32;16.30;98.40
7562;DHT22;3822;48.784;9.174;2022-10-22T04:29:59;16.30;98.40
7562;DHT22;3822;48.784;9.174;2022-10-22T04:32:26;16.30;98.40
7562;DHT22;3822;48.784;9.174;2022-10-22T04:34:53;16.30;98.40
7562;DHT22;3822;48.784;9.174;2022-10-22T04:37:20;16.30;98.40
7562;DHT22;3822;48.784;9.174;2022-10-22T04:39:46;16.20;98.40
7562;DHT22;3822;48.784;9.174;2022-10-22T04:42:13;16.30;98.50
7562;DHT22;3822;48.784;9.174;2022-10-22T04:44:39;16.40;98.50
7562;DHT22;3822;48.784;9.174;2022-10-22T04:47:06;14.60;97.80
7562;DHT22;3822;48.784;9.174;2022-10-22T04:49:32;16.30;98.50
7562;DHT22;3822;48.784;9.174;2022-10-22T04:51:59;16.30;98.50
7562;DHT22;3822;48.784;9.174;2022-10-22T04:54:25;16.30;98.50
7562;DHT22;3822;48.784;9.174;2022-10-22T04:56:52;16.30;98.30
7562;DHT22;3822;48.784;9.174;2022-10-22T04:59:18;16.20;98.20
7562;DHT22;3822;48.784;9.174;2022-10-22T05:01:45;16.20;98.10
7562;DHT22;3822;48.784;9.174;2022-10-22T05:04:14;16.10;98.00
7562;DHT22;3822;48.784;9.174;2022-10-22T05:06:42;16.10;98.00
7562;DHT22;3822;48.784;9.174;2022-10-22T05:09:17;16.00;97.90
7562;DHT22;3822;48.784;9.174;2022-10-22T05:11:47;16.00;97.90
7562;DHT22;3822;48.784;9.174;2022-10-22T05:14:20;16.00;97.90
7562;DHT22;3822;48.784;9.174;2022-10-22T05:16:48;16.00;97.90
7562;DHT22;3822;48.784;9.174;2022-10-22T05:19:22;16.00;98.00
7562;DHT22;3822;48.784;9.174;2022-10-22T05:21:55;16.00;98.00
7562;DHT22;3822;48.784;9.174;2022-10-22T05:24:24;16.10;98.00
7562;DHT22;3822;48.784;9.174;2022-10-22T05:26:52;16.10;98.00
7562;DHT22;3822;48.784;9.174;2022-10-22T05:29:19;16.20;98.00
7562;DHT22;3822;48.784;9.174;2022-10-22T05:31:47;16.20;98.00
7562;DHT22;3822;48.784;9.174;2022-10-22T05:34:13;16.20;98.00
7562;DHT22;3822;48.784;9.174;2022-10-22T05:36:40;16.20;97.90
7562;DHT22;3822;48.784;9.174;2022-10-22T05:39:07;16.30;97.90
7562;DHT22;3822;48.784;9.174;2022-10-22T05:41:34;16.20;97.90
7562;DHT22;3822;48.784;9.174;2022-10-22T05:44:02;16.20;97.80
7562;DHT22;3822;48.784;9.174;2022-10-22T05:46:32;16.20;97.80
7562;DHT22;3822;48.784;9.174;2022-10-22T05:49:02;16.20;97.70
7562;DHT22;3822;48.784;9.174;2022-10-22T05:51:32;16.10;97.70
7562;DHT22;3822;48.784;9.174;2022-10-22T05:54:02;16.10;97.70
7562;DHT22;3822;48.784;9.174;2022-10-22T05:56:32;16.10;97.80
7562;DHT22;3822;48.784;9.174;2022-10-22T05:58:59;16.10;97.80
7562;DHT22;3822;48.784;9.174;2022-10-22T06:01:29;16.10;97.80
7562;DHT22;3822;48.784;9.174;2022-10-22T06:03:59;16.10;97.90
7562;DHT22;3822;48.784;9.174;2022-10-22T06:06:33;16.10;97.80
7562;DHT22;3822;48.784;9.174;2022-10-22T06:09:16;16.10;97.80
7562;DHT22;3822;48.784;9.174;2022-10-22T06:11:45;16.10;97.80
7562;DHT22;3822;48.784;9.174;2022-10-22T06:14:12;16.10;97.80
7562;DHT22;3822;48.784;9.174;2022-10-22T06:16:39;16.10;97.90
7562;DHT22;3822;48.784;9.174;2022-10-22T06:19:07;16.10;97.90
7562;DHT22;3822;48.784;9.174;2022-10-22T06:21:34;16.10;97.90
7562;DHT22;3822;48.784;9.174;2022-10-22T06:24:01;14.50;97.10
7562;DHT22;3822;48.784;9.174;2022-10-22T06:26:28;16.10;97.80
7562;DHT22;3822;48.784;9.174;2022-10-22T06:28:55;16.10;97.80
7562;DHT22;3822;48.784;9.174;2022-10-22T06:31:23;16.10;97.90
7562;DHT22;3822;48.784;9.174;2022-10-22T06:33:50;16.10;97.80
7562;DHT22;3822;48.784;9.174;2022-10-22T06:36:20;16.10;97.80
7562;DHT22;3822;48.784;9.174;2022-10-22T06:38:51;16.20;97.80
7562;DHT22;3822;48.784;9.174;2022-10-22T06:41:19;16.20;97.80
7562;DHT22;3822;48.784;9.174;2022-10-22T06:43:45;16.20;97.80
7562;DHT22;3822;48.784;9.174;2022-10-22T06:46:16;16.20;97.80
7562;DHT22;3822;48.784;9.174;2022-10-22T06:48:52;16.20;97.70
7562;DHT22;3822;48.784;9.174;2022-10-22T06:51:19;16.20;97.70
7562;DHT22;3822;48.784;9.174;2022-10-22T06:53:46;16.30;97.70
7562;DHT22;3822;48.784;9.174;2022-10-22T06:56:16;16.20;97.60
7562;DHT22;3822;48.784;9.174;2022-10-22T06:58:48;16.30;97.60
7562;DHT22;3822;48.784;9.174;2022-10-22T07:01:17;16.30;97.60
7562;DHT22;3822;48.784;9.174;2022-10-22T07:03:44;16.30;97.60
7562;DHT22;3822;48.784;9.174;2022-10-22T07:06:13;16.30;97.50
7562;DHT22;3822;48.784;9.174;2022-10-22T07:08:40;16.30;97.50
7562;DHT22;3822;48.784;9.174;2022-10-22T07:11:22;16.30;97.50
7562;DHT22;3822;48.784;9.174;2022-10-22T07:13:54;16.70;97.70
7562;DHT22;3822;48.784;9.174;2022-10-22T07:16:22;16.40;97.60
7562;DHT22;3822;48.784;9.174;2022-10-22T07:18:49;16.40;97.50
7562;DHT22;3822;48.784;9.174;2022-10-22T07:21:17;16.40;97.50
7562;DHT22;3822;48.784;9.174;2022-10-22T07:23:45;16.40;97.60
7562;DHT22;3822;48.784;9.174;2022-10-22T07:26:13;16.50;97.60
7562;DHT22;3822;48.784;9.174;2022-10-22T07:28:41;16.50;97.60
7562;DHT22;3822;48.784;9.174;2022-10-22T07:31:09;16.50;97.70
7562;DHT22;3822;48.784;9.174;2022-10-22T07:33:37;16.60;97.70
7562;DHT22;3822;48.784;9.174;2022-10-22T07:36:07;16.60;97.70
7562;DHT22;3822;48.784;9.174;2022-10-22T07:38:35;16.70;98.00
7562;DHT22;3822;48.784;9.174;2022-10-22T07:41:02;16.70;97.70
7562;DHT22;3822;48.784;9.174;2022-10-22T07:43:29;16.70;97.70
7562;DHT22;3822;48.784;9.174;2022-10-22T07:45:56;16.30;97.50
7562;DHT22;3822;48.784;9.174;2022-10-22T07:48:23;17.50;98.00
7562;DHT22;3822;48.784;9.174;2022-10-22T07:50:50;16.80;97.60
7562;DHT22;3822;48.784;9.174;2022-10-22T07:53:17;16.90;97.80
7562;DHT22;3822;48.784;9.174;2022-10-22T07:55:50;16.90;97.60
7562;DHT22;3822;48.784;9.174;2022-10-22T07:58:18;16.90;97.70
7562;DHT22;3822;48.784;9.174;2022-10-22T08:00:45;16.90;97.60
7562;DHT22;3822;48.784;9.174;2022-10-22T08:03:13;17.00;97.60
7562;DHT22;3822;48.784;9.174;2022-10-22T08:05:41;17.00;97.60
7562;DHT22;3822;48.784;9.174;2022-10-22T08:08:13;17.00;97.60
7562;DHT22;3822;48.784;9.174;2022-10-22T08:10:41;17.00;97.60
7562;DHT22;3822;48.784;9.174;2022-10-22T08:13:08;17.10;97.60
7562;DHT22;3822;48.784;9.174;2022-10-22T08:15:35;17.10;97.60
7562;DHT22;3822;48.784;9.174;2022-10-22T08:18:02;17.10;97.60
7562;DHT22;3822;48.784;9.174;2022-10-22T08:20:28;17.10;97.60
7562;DHT22;3822;48.784;9.174;2022-10-22T08:22:55;17.10;97.60
7562;DHT22;3822;48.784;9.174;2022-10-22T08:25:22;17.10;97.60
7562;DHT22;3822;48.784;9.174;2022-10-22T08:27:48;17.20;97.60
7562;DHT22;3822;48.784;9.174;2022-10-22T08:30:15;17.20;97.60
7562;DHT22;3822;48.784;9.174;2022-10-22T08:32:42;17.20;97.60
7562;DHT22;3822;48.784;9.174;2022-10-22T08:35:09;17.30;97.60
7562;DHT22;3822;48.784;9.174;2022-10-22T08:37:35;17.20;97.60
7562;DHT22;3822;48.784;9.174;2022-10-22T08:40:03;17.30;97.70
7562;DHT22;3822;48.784;9.174;2022-10-22T08:48:46;17.40;97.60
7562;DHT22;3822;48.784;9.174;2022-10-22T08:51:20;17.40;97.60
7562;DHT22;3822;48.784;9.174;2022-10-22T08:54:26;17.40;97.60
7562;DHT22;3822;48.784;9.174;2022-10-22T09:00:23;17.50;97.50
7562;DHT22;3822;48.784;9.174;2022-10-22T09:03:37;17.50;97.50
7562;DHT22;3822;48.784;9.174;2022-10-22T09:06:18;17.50;97.50
7562;DHT22;3822;48.784;9.174;2022-10-22T09:08:48;17.50;97.50
7562;DHT22;3822;48.784;9.174;2022-10-22T09:11:24;17.50;97.50
7562;DHT22;3822;48.784;9.174;2022-10-22T09:13:54;17.60;97.60
7562;DHT22;3822;48.784;9.174;2022-10-22T09:17:00;17.60;97.60
7562;DHT22;3822;48.784;9.174;2022-10-22T09:20:23;17.70;97.50
7562;DHT22;3822;48.784;9.174;2022-10-22T09:23:11;17.80;97.60
7562;DHT22;3822;48.784;9.174;2022-10-22T09:25:46;17.80;97.50
7562;DHT22;3822;48.784;9.174;2022-10-22T09:28:14;17.80;97.50
7562;DHT22;3822;48.784;9.174;2022-10-22T09:30:41;17.90;97.50
7562;DHT22;3822;48.784;9.174;2022-10-22T09:33:23;18.00;97.50
7562;DHT22;3822;48.784;9.174;2022-10-22T09:38:25;18.10;97.20
7562;DHT22;3822;48.784;9.174;2022-10-22T09:40:54;18.20;97.10
7562;DHT22;3822;48.784;9.174;2022-10-22T09:43:22;18.20;97.10
7562;DHT22;3822;48.784;9.174;2022-10-22T09:45:56;18.20;97.00
7562;DHT22;3822;48.784;9.174;2022-10-22T09:48:46;18.40;96.80
7562;DHT22;3822;48.784;9.174;2022-10-22T09:51:48;18.50;96.90
7562;DHT22;3822;48.784;9.174;2022-10-22T09:59:33;18.70;96.60
7562;DHT22;3822;48.784;9.174;2022-10-22T10:02:13;18.90;96.60
7562;DHT22;3822;48.784;9.174;2022-10-22T10:04:46;18.80;96.30
7562;DHT22;3822;48.784;9.174;2022-10-22T10:07:21;18.90;96.30
7562;DHT22;3822;48.784;9.174;2022-10-22T10:09:48;19.00;96.20
7562;DHT22;3822;48.784;9.174;2022-10-22T10:18:03;19.30;95.70
7562;DHT22;3822;48.784;9.174;2022-10-22T10:20:48;19.30;95.10
7562;DHT22;3822;48.784;9.174;2022-10-22T10:36:11;19.70;93.90
7562;DHT22;3822;48.784;9.174;2022-10-22T10:39:07;19.90;93.80
7562;DHT22;3822;48.784;9.174;2022-10-22T10:41:45;19.90;93.70
7562;DHT22;3822;48.784;9.174;2022-10-22T10:47:03;20.10;93.20
7562;DHT22;3822;48.784;9.174;2022-10-22T10:49:46;20.20;93.10
7562;DHT22;3822;48.784;9.174;2022-10-22T10:52:21;20.30;92.90
7562;DHT22;3822;48.784;9.174;2022-10-22T11:01:21;20.50;92.60
7562;DHT22;3822;48.784;9.174;2022-10-22T11:04:12;20.60;92.40
7562;DHT22;3822;48.784;9.174;2022-10-22T11:06:42;20.70;92.30
7562;DHT22;3822;48.784;9.174;2022-10-22T11:09:29;20.80;92.10
7562;DHT22;3822;48.784;9.174;2022-10-22T11:12:06;20.90;91.80
7562;DHT22;3822;48.784;9.174;2022-10-22T11:17:17;21.10;91.20
7562;DHT22;3822;48.784;9.174;2022-10-22T11:22:56;21.30;90.60
7562;DHT22;3822;48.784;9.174;2022-10-22T11:25:46;21.40;90.50
7562;DHT22;3822;48.784;9.174;2022-10-22T11:28:36;21.50;89.60
7562;DHT22;3822;48.784;9.174;2022-10-22T11:31:15;21.50;89.30
7562;DHT22;3822;48.784;9.174;2022-10-22T11:33:56;21.50;88.60
7562;DHT22;3822;48.784;9.174;2022-10-22T11:36:26;21.50;88.40
7562;DHT22;3822;48.784;9.174;2022-10-22T11:38:54;21.60;88.60
7562;DHT22;3822;48.784;9.174;2022-10-22T11:41:23;21.60;88.40
7562;DHT22;3822;48.784;9.174;2022-10-22T11:44:22;21.60;88.10
7562;DHT22;3822;48.784;9.174;2022-10-22T11:46:55;21.70;87.40
7562;DHT22;3822;48.784;9.174;2022-10-22T11:49:27;21.60;87.80
7562;DHT22;3822;48.784;9.174;2022-10-22T11:52:37;21.70;88.10
7562;DHT22;3822;48.784;9.174;2022-10-22T11:55:32;21.70;87.90
7562;DHT22;3822;48.784;9.174;2022-10-22T12:06:27;22.00;88.10
7562;DHT22;3822;48.784;9.174;2022-10-22T12:09:00;22.00;87.80
7562;DHT22;3822;48.784;9.174;2022-10-22T12:11:40;22.10;87.70
7562;DHT22;3822;48.784;9.174;2022-10-22T12:14:24;22.20;87.30
7562;DHT22;3822;48.784;9.174;2022-10-22T12:17:11;22.30;87.30
7562;DHT22;3822;48.784;9.174;2022-10-22T12:19:44;22.30;87.00
7562;DHT22;3822;48.784;9.174;2022-10-22T12:24:45;22.40;86.60
7562;DHT22;3822;48.784;9.174;2022-10-22T12:27:21;22.40;85.90
7562;DHT22;3822;48.784;9.174;2022-10-22T12:30:00;22.50;85.70
7562;DHT22;3822;48.784;9.174;2022-10-22T12:32:38;22.60;84.80
7562;DHT22;3822;48.784;9.174;2022-10-22T12:35:10;22.70;84.10
7562;DHT22;3822;48.784;9.174;2022-10-22T12:37:41;22.80;83.60
7562;DHT22;3822;48.784;9.174;2022-10-22T12:40:23;22.90;83.10
7562;DHT22;3822;48.784;9.174;2022-10-22T12:42:56;23.00;82.40
7562;DHT22;3822;48.784;9.174;2022-10-22T12:45:29;23.20;81.70
7562;DHT22;3822;48.784;9.174;2022-10-22T12:47:59;23.30;81.40
7562;DHT22;3822;48.784;9.174;2022-10-22T12:50:35;23.50;81.30
7562;DHT22;3822;48.784;9.174;2022-10-22T12:53:29;23.70;80.50
7562;DHT22;3822;48.784;9.174;2022-10-22T12:59:22;24.20;79.30
7562;DHT22;3822;48.784;9.174;2022-10-22T13:01:51;24.50;77.60
7562;DHT22;3822;48.784;9.174;2022-10-22T13:06:49;24.80;75.10
7562;DHT22;3822;48.784;9.174;2022-10-22T13:09:21;25.00;74.40
7562;DHT22;3822;48.784;9.174;2022-10-22T13:11:54;25.10;73.70
7562;DHT22;3822;48.784;9.174;2022-10-22T13:14:29;25.10;73.20
7562;DHT22;3822;48.784;9.174;2022-10-22T13:17:11;25.20;72.50
7562;DHT22;3822;48.784;9.174;2022-10-22T13:22:33;25.20;71.20
7562;DHT22;3822;48.784;9.174;2022-10-22T13:28:02;25.40;70.40
7562;DHT22;3822;48.784;9.174;2022-10-22T13:30:58;25.50;69.80
7562;DHT22;3822;48.784;9.174;2022-10-22T13:33:32;25.60;69.50
7562;DHT22;3822;48.784;9.174;2022-10-22T13:36:12;25.70;69.40
7562;DHT22;3822;48.784;9.174;2022-10-22T13:38:41;25.80;68.70
7562;DHT22;3822;48.784;9.174;2022-10-22T13:41:26;25.90;68.50
7562;DHT22;3822;48.784;9.174;2022-10-22T13:43:54;26.10;68.30
7562;DHT22;3822;48.784;9.174;2022-10-22T13:46:21;26.20;68.10
7562;DHT22;3822;48.784;9.174;2022-10-22T13:48:51;26.30;67.80
7562;DHT22;3822;48.784;9.174;2022-10-22T13:51:21;26.50;67.30
7562;DHT22;3822;48.784;9.174;2022-10-22T13:53:51;26.70;66.90
7562;DHT22;3822;48.784;9.174;2022-10-22T13:56:19;26.80;66.50
7562;DHT22;3822;48.784;9.174;2022-10-22T13:58:47;26.90;65.50
7562;DHT22;3822;48.784;9.174;2022-10-22T14:03:49;27.20;64.80
7562;DHT22;3822;48.784;9.174;2022-10-22T14:06:19;27.30;64.30
7562;DHT22;3822;48.784;9.174;2022-10-22T14:08:53;27.50;63.50
7562;DHT22;3822;48.784;9.174;2022-10-22T14:11:24;27.60;63.10
7562;DHT22;3822;48.784;9.174;2022-10-22T14:13:53;27.60;62.80
7562;DHT22;3822;48.784;9.174;2022-10-22T14:16:23;27.70;62.30
7562;DHT22;3822;48.784;9.174;2022-10-22T14:18:52;27.80;61.20
7562;DHT22;3822;48.784;9.174;2022-10-22T14:21:19;27.90;60.90
7562;DHT22;3822;48.784;9.174;2022-10-22T14:23:47;27.90;60.60
7562;DHT22;3822;48.784;9.174;2022-10-22T14:26:30;28.00;59.90
7562;DHT22;3822;48.784;9.174;2022-10-22T14:29:00;28.10;59.30
7562;DHT22;3822;48.784;9.174;2022-10-22T14:31:27;28.10;58.90
7562;DHT22;3822;48.784;9.174;2022-10-22T14:33:54;28.10;58.80
7562;DHT22;3822;48.784;9.174;2022-10-22T14:36:20;28.10;58.50
7562;DHT22;3822;48.784;9.174;2022-10-22T14:38:47;28.10;58.30
7562;DHT22;3822;48.784;9.174;2022-10-22T14:41:20;28.10;58.70
7562;DHT22;3822;48.784;9.174;2022-10-22T14:43:48;28.10;57.80
7562;DHT22;3822;48.784;9.174;2022-10-22T14:46:16;28.00;57.90
7562;DHT22;3822;48.784;9.174;2022-10-22T14:48:44;28.10;57.90
7562;DHT22;3822;48.784;9.174;2022-10-22T14:51:15;28.20;57.80
7562;DHT22;3822;48.784;9.174;2022-10-22T14:53:43;28.20;57.30
7562;DHT22;3822;48.784;9.174;2022-10-22T14:56:11;28.20;56.90
7562;DHT22;3822;48.784;9.174;2022-10-22T14:58:43;28.20;56.90
7562;DHT22;3822;48.784;9.174;2022-10-22T15:01:10;28.20;56.80
7562;DHT22;3822;48.784;9.174;2022-10-22T15:03:37;28.30;56.50
7562;DHT22;3822;48.784;9.174;2022-10-22T15:06:04;28.40;56.40
7562;DHT22;3822;48.784;9.174;2022-10-22T15:08:30;28.60;56.40
7562;DHT22;3822;48.784;9.174;2022-10-22T15:11:09;28.80;56.10
7562;DHT22;3822;48.784;9.174;2022-10-22T15:13:36;29.00;55.70
7562;DHT22;3822;48.784;9.174;2022-10-22T15:16:09;29.30;55.40
7562;DHT22;3822;48.784;9.174;2022-10-22T15:18:36;29.60;54.80
7562;DHT22;3822;48.784;9.174;2022-10-22T15:21:05;29.90;54.30
7562;DHT22;3822;48.784;9.174;2022-10-22T15:23:38;30.30;53.50
7562;DHT22;3822;48.784;9.174;2022-10-22T15:26:09;30.90;52.50
7562;DHT22;3822;48.784;9.174;2022-10-22T15:28:37;29.80;49.80
7562;DHT22;3822;48.784;9.174;2022-10-22T15:31:06;31.30;49.80
7562;DHT22;3822;48.784;9.174;2022-10-22T15:33:33;31.30;49.20
7562;DHT22;3822;48.784;9.174;2022-10-22T15:36:09;31.20;48.80
7562;DHT22;3822;48.784;9.174;2022-10-22T15:38:37;31.00;47.90
7562;DHT22;3822;48.784;9.174;2022-10-22T15:41:06;30.80;48.00
7562;DHT22;3822;48.784;9.174;2022-10-22T15:43:35;30.60;47.90
7562;DHT22;3822;48.784;9.174;2022-10-22T15:46:09;30.30;48.10
7562;DHT22;3822;48.784;9.174;2022-10-22T15:48:37;30.00;48.30
7562;DHT22;3822;48.784;9.174;2022-10-22T15:51:13;29.70;48.90
7562;DHT22;3822;48.784;9.174;2022-10-22T16:12:08;27.50;52.80
7562;DHT22;3822;48.784;9.174;2022-10-22T16:14:34;27.20;53.80
7562;DHT22;3822;48.784;9.174;2022-10-22T16:17:01;27.00;54.20
7562;DHT22;3822;48.784;9.174;2022-10-22T16:19:27;26.80;54.60
7562;DHT22;3822;48.784;9.174;2022-10-22T16:21:55;26.60;54.90
7562;DHT22;3822;48.784;9.174;2022-10-22T16:24:22;26.50;55.60
7562;DHT22;3822;48.784;9.174;2022-10-22T16:26:48;26.30;55.90
7562;DHT22;3822;48.784;9.174;2022-10-22T16:29:15;26.10;56.40
7562;DHT22;3822;48.784;9.174;2022-10-22T16:31:41;26.00;57.00
7562;DHT22;3822;48.784;9.174;2022-10-22T16:34:09;25.80;57.40
7562;DHT22;3822;48.784;9.174;2022-10-22T16:36:36;25.70;58.10
7562;DHT22;3822;48.784;9.174;2022-10-22T16:39:23;25.50;58.60
7562;DHT22;3822;48.784;9.174;2022-10-22T16:41:49;25.40;59.20
7562;DHT22;3822;48.784;9.174;2022-10-22T16:44:16;25.20;59.60
7562;DHT22;3822;48.784;9.174;2022-10-22T16:46:43;25.10;60.00
7562;DHT22;3822;48.784;9.174;2022-10-22T16:49:09;24.90;60.30
7562;DHT22;3822;48.784;9.174;2022-10-22T16:51:36;24.80;60.60
7562;DHT22;3822;48.784;9.174;2022-10-22T16:54:03;24.60;60.90
7562;DHT22;3822;48.784;9.174;2022-10-22T16:56:29;24.50;61.30
7562;DHT22;3822;48.784;9.174;2022-10-22T16:58:56;24.30;61.70
7562;DHT22;3822;48.784;9.174;2022-10-22T17:01:25;24.20;62.10
7562;DHT22;3822;48.784;9.174;2022-10-22T17:03:54;24.00;62.30
7562;DHT22;3822;48.784;9.174;2022-10-22T17:06:22;23.90;62.60
7562;DHT22;3822;48.784;9.174;2022-10-22T17:08:49;23.80;62.80
7562;DHT22;3822;48.784;9.174;2022-10-22T17:11:18;23.60;62.90
7562;DHT22;3822;48.784;9.174;2022-10-22T17:13:48;23.50;63.40
7562;DHT22;3822;48.784;9.174;2022-10-22T17:16:19;23.40;63.80
7562;DHT22;3822;48.784;9.174;2022-10-22T17:18:47;23.40;64.30
7562;DHT22;3822;48.784;9.174;2022-10-22T17:21:15;23.10;64.40
7562;DHT22;3822;48.784;9.174;2022-10-22T17:23:42;23.00;65.00
7562;DHT22;3822;48.784;9.174;2022-10-22T17:26:17;22.80;65.30
7562;DHT22;3822;48.784;9.174;2022-10-22T17:28:46;22.70;65.80
7562;DHT22;3822;48.784;9.174;2022-10-22T17:31:28;22.60;66.10
7562;DHT22;3822;48.784;9.174;2022-10-22T17:34:04;22.50;66.60
7562;DHT22;3822;48.784;9.174;2022-10-22T17:36:32;22.40;67.00
7562;DHT22;3822;48.784;9.174;2022-10-22T17:39:01;22.30;67.50
7562;DHT22;3822;48.784;9.174;2022-10-22T17:41:31;22.20;68.10
7562;DHT22;3822;48.784;9.174;2022-10-22T17:44:03;22.10;68.70
7562;DHT22;3822;48.784;9.174;2022-10-22T17:46:31;22.00;69.40
7562;DHT22;3822;48.784;9.174;2022-10-22T17:49:03;21.90;69.80
7562;DHT22;3822;48.784;9.174;2022-10-22T17:51:31;21.90;70.30
7562;DHT22;3822;48.784;9.174;2022-10-22T17:53:58;21.80;70.50
7562;DHT22;3822;48.784;9.174;2022-10-22T17:56:28;21.80;70.80
7562;DHT22;3822;48.784;9.174;2022-10-22T17:58:55;21.70;71.20
7562;DHT22;3822;48.784;9.174;2022-10-22T18:01:24;21.60;71.50
7562;DHT22;3822;48.784;9.174;2022-10-22T18:03:54;21.60;71.90
7562;DHT22;3822;48.784;9.174;2022-10-22T18:06:24;21.40;72.00
7562;DHT22;3822;48.784;9.174;2022-10-22T18:08:51;21.40;72.40
7562;DHT22;3822;48.784;9.174;2022-10-22T18:11:21;21.30;72.60
7562;DHT22;3822;48.784;9.174;2022-10-22T18:13:53;21.30;73.00
7562;DHT22;3822;48.784;9.174;2022-10-22T18:16:20;21.30;73.40
7562;DHT22;3822;48.784;9.174;2022-10-22T18:18:50;21.20;73.60
7562;DHT22;3822;48.784;9.174;2022-10-22T18:21:21;21.10;74.00
7562;DHT22;3822;48.784;9.174;2022-10-22T18:23:49;21.00;74.40
7562;DHT22;3822;48.784;9.174;2022-10-22T18:26:17;21.00;74.80